Fort Worth Alliance Airport
KAFW : now visible

Airfield :











YOU CAN JOIN US ON...

 
LOGIN :

Register | Disclaimer

   EN    FR    IT 

 









Legend :    VFR   Marginal VFR   IFR   Intensive IFR   Very Intensive IFR
Visi :
Ceiling :
>= 8 km
>= 3000ft
5 to 8 km
1000 to 3000 ft
1500m to 5 km
500 to 1000 ft
800 to 1500m
200 to 500 ft
< 800m
< 200 ft
Symbols :   Thunderstorms  Fog  Heavy snow  Heavy precipitations  Wind > 20 kt






- Airport Elevation : 722 ft


KAFW - Fort Worth Alliance

CURRENT METAR :
  • 100153Z 14009KT 10SM FEW250 33/21 A2984 RMK AO2 SLP088 T03280211

EXPIRED METARs :
  • 100053Z 15014KT 10SM FEW250 34/22 A2983 RMK AO2 SLP084 T03390222
  • 092353Z 16014KT 10SM FEW250 34/22 A2982 RMK AO2 PK WND 17028/2318 SLP080 T03440222 10356 20339 55010

TAF KAFW
Valid from the 10 at 00:00 until the 11 at 00:00 UTC


092320Z 1000/1024 17013G23KT P6SM FEW250
FM100200 16009KT P6SM FEW250
FM101200 16005KT P6SM FEW025 FEW250
FM101800 17010KT P6SM FEW070 FEW250
KZFW FIR / North America



MET'MAP, your aeronautical weather chart ! - Copyright ORBIFLY December 2007 - Disclaimer

ORBIFLY MET'MAP TEAM :

Programming & Development : Alexandra Zaïnal
Concept & original design : Baudouin d'Aumeries
Assistance for programming : Marc-Olivier Méhu
Technical & hardware support : Manuel Goepfert

Contact : metmap@orbifly.com




SOURCES & CREDITS :

   NOAA       Earth
Advisory